createdAt,value
2023-02-25T00:00:35.818Z,1.70
2023-02-25T00:03:03.503Z,1.47
2023-02-25T00:05:32.009Z,2.10
2023-02-25T00:07:58.965Z,1.60
2023-02-25T00:10:25.686Z,1.63
2023-02-25T00:12:52.293Z,1.30
2023-02-25T00:15:19.877Z,1.67
2023-02-25T00:17:46.635Z,2.13
2023-02-25T00:20:14.034Z,1.70
2023-02-25T00:22:41.115Z,1.60
2023-02-25T00:25:09.137Z,1.80
2023-02-25T00:27:36.280Z,2.07
2023-02-25T00:30:03.517Z,1.80
2023-02-25T00:32:30.190Z,2.23
2023-02-25T00:34:57.501Z,1.47
2023-02-25T00:37:24.414Z,1.50
2023-02-25T00:39:50.929Z,1.53
2023-02-25T00:42:18.588Z,1.20
2023-02-25T00:44:50.171Z,1.50
2023-02-25T00:47:18.930Z,1.10
2023-02-25T00:49:47.897Z,1.20
2023-02-25T00:52:15.124Z,1.37
2023-02-25T00:54:41.767Z,1.47
2023-02-25T00:57:08.567Z,1.30
2023-02-25T00:59:35.081Z,1.40
2023-02-25T01:02:01.788Z,1.70
2023-02-25T01:04:28.364Z,1.50
2023-02-25T01:06:55.063Z,1.40
2023-02-25T01:09:21.648Z,1.40
2023-02-25T01:11:48.547Z,1.60
2023-02-25T01:14:19.513Z,1.50
2023-02-25T01:16:47.506Z,1.80
2023-02-25T01:19:19.800Z,1.77
2023-02-25T01:21:48.313Z,1.77
2023-02-25T01:24:27.843Z,2.10
2023-02-25T01:26:56.302Z,1.40
2023-02-25T01:29:34.827Z,2.27
2023-02-25T01:32:02.943Z,1.60
2023-02-25T01:34:30.348Z,2.37
2023-02-25T01:36:56.931Z,1.93
2023-02-25T01:39:25.875Z,1.83
2023-02-25T01:41:53.716Z,1.53
2023-02-25T01:44:28.730Z,1.87
2023-02-25T01:46:55.553Z,1.80
2023-02-25T01:49:25.016Z,1.73
2023-02-25T01:51:54.491Z,1.55
2023-02-25T01:54:21.180Z,1.50
2023-02-25T01:56:51.790Z,1.83
2023-02-25T01:59:19.191Z,1.70
2023-02-25T02:01:45.690Z,1.83
2023-02-25T02:04:13.613Z,1.80
2023-02-25T02:06:43.216Z,2.10
2023-02-25T02:09:13.859Z,3.00
2023-02-25T02:11:40.501Z,2.13
2023-02-25T02:14:09.231Z,2.37
2023-02-25T02:16:44.956Z,2.00
2023-02-25T02:19:39.937Z,2.40
2023-02-25T02:22:44.900Z,2.00
2023-02-25T02:25:17.217Z,2.03
2023-02-25T02:28:20.715Z,2.10
2023-02-25T02:31:08.353Z,1.87
2023-02-25T02:33:59.692Z,2.83
2023-02-25T02:36:44.471Z,2.37
2023-02-25T02:39:15.421Z,2.30
2023-02-25T02:41:47.416Z,1.97
2023-02-25T02:44:19.484Z,1.63
2023-02-25T02:46:53.866Z,2.00
2023-02-25T02:49:34.504Z,2.30
2023-02-25T02:52:04.587Z,1.70
2023-02-25T02:54:34.061Z,2.20
2023-02-25T02:57:01.396Z,1.50
2023-02-25T02:59:33.606Z,2.07
2023-02-25T03:02:06.641Z,1.60
2023-02-25T03:04:36.242Z,2.10
2023-02-25T03:07:05.433Z,2.00
2023-02-25T03:09:46.623Z,2.37
2023-02-25T03:12:13.249Z,1.67
2023-02-25T03:14:40.409Z,1.83
2023-02-25T03:17:12.533Z,2.23
2023-02-25T03:19:45.891Z,1.90
2023-02-25T03:22:28.108Z,2.00
2023-02-25T03:25:17.130Z,1.60
2023-02-25T03:27:45.096Z,1.63
2023-02-25T03:30:21.877Z,2.00
2023-02-25T03:32:54.306Z,2.10
2023-02-25T03:35:21.968Z,2.83
2023-02-25T03:37:51.574Z,1.57
2023-02-25T03:40:20.228Z,1.90
2023-02-25T03:42:53.595Z,1.90
2023-02-25T03:45:21.967Z,1.90
2023-02-25T03:47:49.026Z,1.87
2023-02-25T03:50:21.100Z,1.70
2023-02-25T03:52:47.948Z,1.80
2023-02-25T03:55:16.998Z,1.80
2023-02-25T03:57:45.034Z,1.80
2023-02-25T04:00:19.272Z,2.20
2023-02-25T04:02:47.171Z,1.90
2023-02-25T04:05:14.758Z,1.90
2023-02-25T04:07:41.368Z,1.63
2023-02-25T04:10:09.901Z,1.90
2023-02-25T04:12:37.048Z,1.60
2023-02-25T04:15:04.366Z,2.10
2023-02-25T04:17:31.056Z,2.53
2023-02-25T04:19:58.008Z,2.50
2023-02-25T04:22:24.790Z,1.90
2023-02-25T04:24:51.571Z,2.07
2023-02-25T04:27:18.093Z,2.03
2023-02-25T04:29:45.193Z,2.10
2023-02-25T04:32:12.129Z,2.10
2023-02-25T04:34:38.851Z,2.07
2023-02-25T04:37:05.746Z,2.10
2023-02-25T04:39:32.887Z,2.43
2023-02-25T04:41:59.577Z,2.20
2023-02-25T04:44:26.444Z,2.57
2023-02-25T04:46:53.094Z,3.33
2023-02-25T04:49:21.646Z,3.03
2023-02-25T04:51:52.063Z,3.80
2023-02-25T04:54:21.869Z,4.10
2023-02-25T04:56:48.997Z,6.00
2023-02-25T04:59:17.319Z,5.97
2023-02-25T05:01:44.057Z,6.47
2023-02-25T05:04:11.050Z,5.57
2023-02-25T05:06:39.119Z,5.27
2023-02-25T05:09:06.035Z,4.80
2023-02-25T05:11:32.679Z,5.80
2023-02-25T05:13:59.376Z,5.23
2023-02-25T05:16:26.640Z,5.27
2023-02-25T05:18:53.589Z,4.47
2023-02-25T05:21:22.890Z,5.30
2023-02-25T05:23:50.826Z,4.40
2023-02-25T05:26:21.806Z,4.00
2023-02-25T05:28:56.908Z,3.63
2023-02-25T05:31:25.042Z,4.30
2023-02-25T05:33:52.857Z,4.30
2023-02-25T05:36:19.596Z,5.17
2023-02-25T05:38:46.634Z,5.93
2023-02-25T05:41:13.551Z,5.93
2023-02-25T05:43:40.731Z,5.10
2023-02-25T05:46:11.696Z,5.27
2023-02-25T05:48:39.561Z,5.50
2023-02-25T05:51:12.696Z,5.47
2023-02-25T05:53:39.353Z,6.10
2023-02-25T05:56:11.717Z,6.37
2023-02-25T05:58:38.220Z,6.70
2023-02-25T06:01:13.740Z,6.20
2023-02-25T06:03:41.588Z,5.80
2023-02-25T06:06:08.332Z,6.37
2023-02-25T06:08:34.954Z,6.07
2023-02-25T06:11:02.258Z,5.80
2023-02-25T06:13:28.813Z,5.80
2023-02-25T06:15:55.376Z,3.67
2023-02-25T06:18:21.906Z,4.10
2023-02-25T06:20:48.430Z,4.13
2023-02-25T06:23:15.088Z,3.30
2023-02-25T06:25:41.628Z,2.73
2023-02-25T06:28:08.072Z,2.50
2023-02-25T06:30:34.593Z,3.07
2023-02-25T06:33:01.126Z,4.33
2023-02-25T06:35:27.747Z,5.47
2023-02-25T06:37:59.190Z,6.53
2023-02-25T06:40:27.547Z,6.33
2023-02-25T06:42:54.222Z,6.67
2023-02-25T06:45:20.827Z,6.63
2023-02-25T06:47:47.377Z,6.40
2023-02-25T06:50:14.418Z,6.70
2023-02-25T06:52:41.062Z,6.50
2023-02-25T06:55:08.150Z,6.73
2023-02-25T06:57:36.203Z,6.50
2023-02-25T07:00:05.594Z,7.40
2023-02-25T07:02:32.354Z,7.93
2023-02-25T07:05:00.417Z,10.10
2023-02-25T07:07:27.061Z,9.50
2023-02-25T07:09:53.565Z,10.00
2023-02-25T07:12:20.413Z,10.10
2023-02-25T07:14:47.035Z,7.20
2023-02-25T07:17:13.678Z,4.20
2023-02-25T07:19:40.196Z,8.90
2023-02-25T07:22:06.897Z,7.80
2023-02-25T07:24:33.431Z,13.63
2023-02-25T07:27:00.099Z,6.30
2023-02-25T07:29:26.612Z,3.13
2023-02-25T07:31:53.451Z,3.33
2023-02-25T07:34:20.138Z,3.73
2023-02-25T07:36:46.752Z,6.60
2023-02-25T07:39:13.350Z,3.07
2023-02-25T07:41:40.370Z,3.97
2023-02-25T07:44:07.303Z,4.20
2023-02-25T07:46:34.021Z,4.80
2023-02-25T07:49:00.672Z,4.23
2023-02-25T07:51:27.415Z,8.40
2023-02-25T07:53:57.749Z,7.13
2023-02-25T07:56:26.299Z,6.83
2023-02-25T07:58:52.976Z,11.70
2023-02-25T08:01:25.795Z,12.40
2023-02-25T08:03:54.115Z,6.47
2023-02-25T08:06:20.965Z,7.83
2023-02-25T08:08:48.088Z,7.73
2023-02-25T08:11:15.065Z,4.50
2023-02-25T08:13:41.602Z,11.00
2023-02-25T08:16:10.555Z,4.73
2023-02-25T08:18:37.640Z,6.37
2023-02-25T08:21:04.858Z,4.77
2023-02-25T08:23:31.911Z,4.50
2023-02-25T08:25:59.096Z,6.00
2023-02-25T08:28:26.848Z,14.67
2023-02-25T08:30:54.710Z,12.50
2023-02-25T08:33:21.556Z,6.70
2023-02-25T08:35:48.042Z,5.80
2023-02-25T08:38:14.556Z,6.53
2023-02-25T08:40:41.447Z,4.77
2023-02-25T08:43:08.886Z,6.70
2023-02-25T08:45:37.339Z,10.70
2023-02-25T08:48:04.965Z,5.63
2023-02-25T08:50:31.710Z,8.13
2023-02-25T08:52:58.360Z,4.80
2023-02-25T08:55:25.999Z,4.80
2023-02-25T08:57:53.374Z,5.63
2023-02-25T09:00:21.379Z,4.00
2023-02-25T09:02:49.522Z,4.13
2023-02-25T09:05:16.181Z,2.87
2023-02-25T09:07:42.766Z,3.40
2023-02-25T09:10:10.311Z,3.60
2023-02-25T09:12:40.751Z,3.63
2023-02-25T09:15:08.114Z,4.00
2023-02-25T09:17:34.657Z,3.87
2023-02-25T09:20:01.394Z,3.87
2023-02-25T09:22:28.589Z,4.70
2023-02-25T09:24:56.098Z,4.83
2023-02-25T09:27:22.633Z,4.10
2023-02-25T09:29:49.175Z,4.60
2023-02-25T09:32:20.292Z,4.33
2023-02-25T09:34:49.228Z,4.53
2023-02-25T09:37:17.091Z,4.20
2023-02-25T09:39:43.621Z,4.20
2023-02-25T09:42:16.790Z,4.60
2023-02-25T09:44:49.441Z,4.50
2023-02-25T09:47:21.869Z,4.40
2023-02-25T09:50:08.237Z,4.07
2023-02-25T09:52:42.734Z,3.90
2023-02-25T09:55:18.901Z,3.20
2023-02-25T09:57:54.400Z,3.87
2023-02-25T10:00:23.599Z,2.60
2023-02-25T10:03:25.922Z,4.23
2023-02-25T10:06:12.716Z,2.50
2023-02-25T10:09:07.339Z,3.17
2023-02-25T10:11:56.019Z,3.07
2023-02-25T10:14:28.301Z,2.83
2023-02-25T10:17:11.185Z,2.90
2023-02-25T10:19:40.569Z,3.50
2023-02-25T10:22:28.821Z,2.90
2023-02-25T10:25:19.836Z,3.10
2023-02-25T10:27:57.956Z,2.97
2023-02-25T10:30:50.810Z,3.60
2023-02-25T10:33:22.063Z,3.13
2023-02-25T10:35:49.587Z,2.43
2023-02-25T10:38:16.086Z,2.30
2023-02-25T10:40:43.033Z,2.83
2023-02-25T10:43:21.348Z,3.27
2023-02-25T10:45:51.397Z,2.50
2023-02-25T10:48:22.127Z,2.30
2023-02-25T10:51:10.088Z,2.20
2023-02-25T10:53:36.633Z,2.77
2023-02-25T10:56:03.942Z,2.70
2023-02-25T10:58:46.936Z,2.63
2023-02-25T11:01:20.130Z,2.87
2023-02-25T11:03:59.050Z,2.20
2023-02-25T11:06:30.214Z,2.73
2023-02-25T11:08:59.887Z,2.50
2023-02-25T11:11:32.511Z,2.83
2023-02-25T11:14:02.420Z,2.40
2023-02-25T11:16:31.547Z,3.67
2023-02-25T11:19:00.422Z,2.83
2023-02-25T11:21:38.074Z,3.17
2023-02-25T11:24:15.815Z,2.97
2023-02-25T11:26:45.587Z,3.27
2023-02-25T11:29:20.504Z,3.33
2023-02-25T11:32:04.686Z,2.90
2023-02-25T11:34:31.853Z,2.93
2023-02-25T11:37:36.059Z,3.53
2023-02-25T11:40:23.105Z,3.10
2023-02-25T11:43:06.325Z,2.60
2023-02-25T11:45:34.889Z,2.83
2023-02-25T11:48:04.395Z,2.50
2023-02-25T11:51:02.802Z,3.30
2023-02-25T11:53:38.502Z,2.70
2023-02-25T11:56:13.882Z,3.20
2023-02-25T11:59:29.707Z,2.53
2023-02-25T12:02:20.648Z,3.73
2023-02-25T12:05:05.366Z,3.03
2023-02-25T12:08:17.210Z,3.63
2023-02-25T12:10:49.868Z,3.17
2023-02-25T12:13:44.739Z,3.50
2023-02-25T12:16:32.055Z,2.80
2023-02-25T12:19:13.797Z,4.50
2023-02-25T12:21:58.608Z,4.13
2023-02-25T12:24:34.424Z,3.23
2023-02-25T12:27:25.650Z,3.70
2023-02-25T12:30:29.203Z,3.07
2023-02-25T12:33:01.603Z,4.40
2023-02-25T12:35:46.707Z,4.07
2023-02-25T12:38:51.684Z,2.90
2023-02-25T12:41:21.250Z,3.10
2023-02-25T12:43:53.169Z,2.67
2023-02-25T12:46:22.254Z,2.77
2023-02-25T12:49:14.225Z,3.00
2023-02-25T12:52:13.899Z,2.97
2023-02-25T12:55:06.957Z,2.77
2023-02-25T12:57:45.803Z,4.27
2023-02-25T13:00:33.891Z,3.30
2023-02-25T13:03:09.941Z,3.20
2023-02-25T13:06:03.081Z,3.60
2023-02-25T13:08:44.672Z,4.40
2023-02-25T13:11:18.780Z,3.67
2023-02-25T13:14:12.480Z,3.27
2023-02-25T13:17:05.122Z,2.97
2023-02-25T13:19:54.991Z,4.03
2023-02-25T13:22:33.709Z,3.10
2023-02-25T13:25:19.822Z,3.30
2023-02-25T13:28:08.413Z,3.30
2023-02-25T13:31:01.408Z,4.43
2023-02-25T13:33:58.067Z,3.83
2023-02-25T13:36:51.323Z,4.00
2023-02-25T13:39:40.022Z,4.27
2023-02-25T13:42:54.300Z,3.60
2023-02-25T13:45:35.802Z,3.60
2023-02-25T13:48:30.557Z,4.50
2023-02-25T13:51:30.523Z,3.73
2023-02-25T13:54:15.118Z,3.70
2023-02-25T13:57:00.194Z,3.10
2023-02-25T14:00:09.330Z,3.93
2023-02-25T14:02:40.245Z,3.30
2023-02-25T14:05:31.021Z,3.53
2023-02-25T14:08:02.145Z,3.23
2023-02-25T14:10:47.154Z,3.50
2023-02-25T14:13:16.639Z,2.70
2023-02-25T14:16:01.433Z,3.13
2023-02-25T14:19:03.526Z,2.70
2023-02-25T14:21:51.858Z,2.90
2023-02-25T14:24:29.616Z,2.60
2023-02-25T14:27:11.130Z,3.53
2023-02-25T14:30:03.880Z,5.83
2023-02-25T14:32:38.385Z,2.97
2023-02-25T14:35:07.785Z,3.03
2023-02-25T14:37:47.004Z,3.53
2023-02-25T14:40:34.449Z,3.10
2023-02-25T14:43:05.175Z,2.93
2023-02-25T14:45:36.456Z,3.03
2023-02-25T14:48:06.660Z,3.10
2023-02-25T14:50:43.883Z,2.97
2023-02-25T14:53:35.087Z,3.10
2023-02-25T14:56:13.973Z,2.93
2023-02-25T14:59:00.736Z,3.40
2023-02-25T15:01:38.738Z,3.90
2023-02-25T15:04:17.694Z,4.53
2023-02-25T15:07:02.423Z,4.27
2023-02-25T15:09:47.216Z,3.10
2023-02-25T15:12:27.233Z,3.10
2023-02-25T15:15:31.371Z,2.93
2023-02-25T15:18:19.351Z,3.43
2023-02-25T15:20:46.240Z,4.50
2023-02-25T15:23:19.887Z,3.27
2023-02-25T15:26:35.819Z,3.60
2023-02-25T15:29:02.634Z,4.53
2023-02-25T15:31:34.174Z,4.20
2023-02-25T15:34:23.368Z,4.80
2023-02-25T15:36:51.915Z,4.57
2023-02-25T15:39:40.401Z,4.30
2023-02-25T15:42:09.422Z,4.47
2023-02-25T15:44:37.492Z,4.20
2023-02-25T15:47:25.753Z,5.47
2023-02-25T15:49:53.382Z,5.00
2023-02-25T15:52:52.569Z,4.43
2023-02-25T15:55:30.382Z,4.70
2023-02-25T15:57:56.935Z,4.23
2023-02-25T16:00:51.105Z,4.47
2023-02-25T16:03:35.758Z,4.60
2023-02-25T16:06:12.007Z,5.30
2023-02-25T16:09:05.460Z,4.27
2023-02-25T16:11:45.545Z,4.00
2023-02-25T16:14:17.202Z,3.83
2023-02-25T16:16:57.562Z,4.50
2023-02-25T16:19:30.918Z,4.80
2023-02-25T16:22:00.763Z,6.80
2023-02-25T16:24:28.141Z,5.00
2023-02-25T16:27:06.476Z,4.57
2023-02-25T16:29:58.844Z,5.50
2023-02-25T16:33:21.480Z,6.07
2023-02-25T16:36:06.759Z,4.80
2023-02-25T16:38:34.028Z,5.20
2023-02-25T16:41:00.898Z,5.20
2023-02-25T16:43:32.493Z,5.33
2023-02-25T16:46:05.118Z,4.27
2023-02-25T16:48:37.464Z,5.97
2023-02-25T16:51:09.061Z,4.83
2023-02-25T16:53:35.700Z,4.90
2023-02-25T16:56:02.315Z,5.97
2023-02-25T16:58:30.633Z,4.03
2023-02-25T17:00:59.835Z,4.47
2023-02-25T17:03:31.113Z,5.40
2023-02-25T17:06:06.677Z,3.80
2023-02-25T17:08:35.093Z,5.57
2023-02-25T17:11:03.141Z,4.87
2023-02-25T17:13:36.074Z,4.80
2023-02-25T17:16:05.091Z,7.13
2023-02-25T17:18:41.928Z,5.17
2023-02-25T17:21:24.900Z,9.83
2023-02-25T17:23:52.289Z,8.87
2023-02-25T17:26:19.391Z,4.87
2023-02-25T17:28:49.705Z,5.13
2023-02-25T17:31:19.532Z,5.90
2023-02-25T17:33:49.566Z,6.80
2023-02-25T17:36:19.951Z,9.73
2023-02-25T17:38:46.813Z,8.50
2023-02-25T17:41:17.927Z,7.00
2023-02-25T17:43:44.869Z,6.80
2023-02-25T17:46:25.604Z,5.43
2023-02-25T17:48:55.643Z,6.00
2023-02-25T17:51:33.368Z,7.17
2023-02-25T17:54:05.722Z,5.73
2023-02-25T17:56:33.867Z,4.57
2023-02-25T17:59:04.885Z,5.50
2023-02-25T18:02:00.378Z,4.90
2023-02-25T18:04:41.293Z,5.20
2023-02-25T18:07:21.638Z,5.30
2023-02-25T18:09:49.096Z,5.80
2023-02-25T18:12:36.548Z,5.30
2023-02-25T18:15:18.883Z,4.40
2023-02-25T18:17:53.522Z,4.40
2023-02-25T18:20:31.366Z,5.20
2023-02-25T18:23:05.231Z,4.60
2023-02-25T18:25:38.398Z,4.77
2023-02-25T18:28:07.463Z,3.70
2023-02-25T18:30:34.077Z,4.80
2023-02-25T18:33:00.687Z,4.37
2023-02-25T18:35:28.515Z,4.97
2023-02-25T18:37:56.048Z,5.23
2023-02-25T18:40:29.814Z,5.90
2023-02-25T18:42:57.030Z,5.10
2023-02-25T18:45:25.899Z,5.10
2023-02-25T18:47:53.685Z,6.60
2023-02-25T18:50:21.062Z,5.23
2023-02-25T18:52:47.638Z,6.50
2023-02-25T18:55:20.224Z,4.77
2023-02-25T18:57:47.324Z,5.60
2023-02-25T19:00:15.675Z,5.10
2023-02-25T19:02:49.594Z,5.97
2023-02-25T19:05:17.765Z,6.37
2023-02-25T19:07:45.023Z,6.30
2023-02-25T19:10:16.462Z,6.53
2023-02-25T19:12:43.078Z,7.03
2023-02-25T19:15:14.094Z,6.40
2023-02-25T19:17:40.588Z,5.80
2023-02-25T19:20:08.363Z,5.70
2023-02-25T19:22:35.907Z,5.43
2023-02-25T19:25:02.471Z,6.07
2023-02-25T19:27:29.876Z,5.63
2023-02-25T19:29:59.016Z,5.30
2023-02-25T19:32:26.053Z,5.70
2023-02-25T19:34:52.638Z,5.70
2023-02-25T19:37:20.359Z,6.03
2023-02-25T19:39:47.015Z,7.00
2023-02-25T19:42:13.854Z,7.50
2023-02-25T19:44:40.318Z,7.87
2023-02-25T19:47:08.031Z,7.83
2023-02-25T19:49:34.509Z,6.30
2023-02-25T19:52:01.032Z,6.07
2023-02-25T19:54:27.680Z,6.27
2023-02-25T19:56:54.240Z,7.33
2023-02-25T19:59:21.098Z,6.00
2023-02-25T20:01:47.857Z,4.80
2023-02-25T20:04:14.355Z,2.73
2023-02-25T20:06:41.142Z,2.73
2023-02-25T20:09:09.310Z,2.50
2023-02-25T20:11:35.864Z,2.20
2023-02-25T20:14:03.955Z,3.47
2023-02-25T20:16:31.924Z,3.30
2023-02-25T20:18:58.562Z,2.20
2023-02-25T20:21:26.512Z,2.60
2023-02-25T20:23:53.543Z,2.50
2023-02-25T20:26:23.018Z,2.40
2023-02-25T20:28:52.475Z,2.57
2023-02-25T20:31:19.414Z,2.17
2023-02-25T20:33:48.804Z,2.00
2023-02-25T20:36:29.805Z,2.73
2023-02-25T20:39:02.571Z,2.40
2023-02-25T20:41:29.845Z,2.03
2023-02-25T20:43:56.548Z,1.80
2023-02-25T20:46:28.891Z,2.03
2023-02-25T20:48:55.949Z,2.00
2023-02-25T20:51:22.803Z,1.93
2023-02-25T20:53:49.558Z,2.20
2023-02-25T20:56:21.062Z,2.03
2023-02-25T20:58:47.807Z,2.20
2023-02-25T21:01:15.826Z,1.47
2023-02-25T21:03:42.640Z,2.43
2023-02-25T21:06:11.780Z,1.97
2023-02-25T21:08:38.549Z,1.60
2023-02-25T21:11:05.570Z,1.70
2023-02-25T21:13:32.321Z,1.80
2023-02-25T21:16:00.825Z,2.20
2023-02-25T21:18:28.159Z,1.70
2023-02-25T21:21:04.135Z,2.10
2023-02-25T21:23:31.321Z,2.30
2023-02-25T21:26:05.512Z,2.27
2023-02-25T21:28:32.353Z,2.03
2023-02-25T21:31:16.046Z,2.53
2023-02-25T21:33:43.151Z,2.13
2023-02-25T21:36:10.414Z,2.00
2023-02-25T21:38:37.333Z,2.30
2023-02-25T21:41:12.341Z,1.97
2023-02-25T21:43:39.747Z,2.30
2023-02-25T21:46:10.891Z,1.70
2023-02-25T21:48:39.036Z,1.90
2023-02-25T21:51:06.245Z,2.20
2023-02-25T21:53:33.576Z,1.97
2023-02-25T21:56:15.059Z,2.50
2023-02-25T21:58:41.797Z,1.80
2023-02-25T22:01:11.492Z,1.53
2023-02-25T22:03:38.184Z,2.27
2023-02-25T22:06:04.939Z,1.73
2023-02-25T22:08:31.730Z,2.13
2023-02-25T22:10:58.614Z,2.30
2023-02-25T22:13:25.969Z,2.03
2023-02-25T22:15:52.469Z,1.73
2023-02-25T22:18:19.065Z,1.70
2023-02-25T22:20:45.548Z,1.80
2023-02-25T22:23:12.211Z,1.97
2023-02-25T22:25:39.002Z,1.80
2023-02-25T22:28:05.579Z,1.73
2023-02-25T22:30:32.256Z,2.53
2023-02-25T22:32:58.856Z,2.43
2023-02-25T22:35:25.396Z,2.20
2023-02-25T22:37:51.957Z,1.87
2023-02-25T22:40:18.542Z,2.40
2023-02-25T22:42:45.181Z,2.23
2023-02-25T22:45:11.933Z,2.17
2023-02-25T22:47:38.408Z,2.47
2023-02-25T22:50:05.381Z,2.50
2023-02-25T22:52:31.868Z,1.90
2023-02-25T22:54:58.449Z,2.03
2023-02-25T22:57:25.060Z,2.10
2023-02-25T22:59:51.536Z,1.70
2023-02-25T23:02:18.099Z,1.70
2023-02-25T23:04:44.738Z,1.80
2023-02-25T23:07:12.274Z,2.23
2023-02-25T23:09:38.794Z,1.77
2023-02-25T23:12:05.763Z,2.03
2023-02-25T23:14:34.483Z,1.93
2023-02-25T23:17:01.042Z,1.90
2023-02-25T23:19:28.188Z,2.07
2023-02-25T23:21:54.718Z,1.97
2023-02-25T23:24:21.879Z,2.53
2023-02-25T23:26:50.880Z,1.87
2023-02-25T23:29:17.809Z,2.40
2023-02-25T23:31:47.062Z,1.80
2023-02-25T23:34:18.892Z,1.90
2023-02-25T23:36:45.517Z,2.23
2023-02-25T23:39:13.194Z,2.10
2023-02-25T23:41:39.954Z,2.07
2023-02-25T23:44:08.594Z,2.10
2023-02-25T23:46:35.831Z,2.50
2023-02-25T23:49:05.648Z,2.00
2023-02-25T23:51:32.241Z,2.67
2023-02-25T23:54:00.560Z,2.67
2023-02-25T23:56:28.020Z,2.77
2023-02-25T23:58:57.948Z,2.00
